sensor_id;sensor_type;location;lat;lon;timestamp;temperature;humidity
54461;DHT22;40371;49.414;11.010;2022-08-21T00:01:05;19.00;99.90
54461;DHT22;40371;49.414;11.010;2022-08-21T00:03:32;19.10;99.90
54461;DHT22;40371;49.414;11.010;2022-08-21T00:05:58;19.00;99.90
54461;DHT22;40371;49.414;11.010;2022-08-21T00:08:24;19.00;99.90
54461;DHT22;40371;49.414;11.010;2022-08-21T00:10:50;19.00;99.90
54461;DHT22;40371;49.414;11.010;2022-08-21T00:13:17;18.90;99.90
54461;DHT22;40371;49.414;11.010;2022-08-21T00:15:43;19.00;99.90
54461;DHT22;40371;49.414;11.010;2022-08-21T00:18:09;18.80;99.90
54461;DHT22;40371;49.414;11.010;2022-08-21T00:20:37;18.80;99.90
54461;DHT22;40371;49.414;11.010;2022-08-21T00:23:03;18.80;99.90
54461;DHT22;40371;49.414;11.010;2022-08-21T00:25:29;18.60;99.90
54461;DHT22;40371;49.414;11.010;2022-08-21T00:27:56;18.60;99.90
54461;DHT22;40371;49.414;11.010;2022-08-21T00:30:25;18.60;99.90
54461;DHT22;40371;49.414;11.010;2022-08-21T00:32:52;18.70;99.90
54461;DHT22;40371;49.414;11.010;2022-08-21T00:35:22;18.70;99.90
54461;DHT22;40371;49.414;11.010;2022-08-21T00:37:48;18.60;99.90
54461;DHT22;40371;49.414;11.010;2022-08-21T00:40:17;18.60;99.90
54461;DHT22;40371;49.414;11.010;2022-08-21T00:42:43;18.50;99.90
54461;DHT22;40371;49.414;11.010;2022-08-21T00:45:10;18.60;99.90
54461;DHT22;40371;49.414;11.010;2022-08-21T00:47:36;18.60;99.90
54461;DHT22;40371;49.414;11.010;2022-08-21T00:50:03;18.50;99.90
54461;DHT22;40371;49.414;11.010;2022-08-21T00:52:32;18.50;99.90
54461;DHT22;40371;49.414;11.010;2022-08-21T00:54:59;18.60;99.90
54461;DHT22;40371;49.414;11.010;2022-08-21T00:57:32;18.50;99.90
54461;DHT22;40371;49.414;11.010;2022-08-21T01:00:00;18.50;99.90
54461;DHT22;40371;49.414;11.010;2022-08-21T01:02:26;18.50;99.90
54461;DHT22;40371;49.414;11.010;2022-08-21T01:04:53;18.50;99.90
54461;DHT22;40371;49.414;11.010;2022-08-21T01:07:19;18.50;99.90
54461;DHT22;40371;49.414;11.010;2022-08-21T01:09:46;18.40;99.90
54461;DHT22;40371;49.414;11.010;2022-08-21T01:12:13;18.30;99.90
54461;DHT22;40371;49.414;11.010;2022-08-21T01:14:41;18.30;99.90
54461;DHT22;40371;49.414;11.010;2022-08-21T01:17:08;18.40;99.90
54461;DHT22;40371;49.414;11.010;2022-08-21T01:19:34;18.30;99.90
54461;DHT22;40371;49.414;11.010;2022-08-21T01:22:00;18.30;99.90
54461;DHT22;40371;49.414;11.010;2022-08-21T01:24:26;18.40;99.90
54461;DHT22;40371;49.414;11.010;2022-08-21T01:26:52;18.30;99.90
54461;DHT22;40371;49.414;11.010;2022-08-21T01:29:41;18.30;99.90
54461;DHT22;40371;49.414;11.010;2022-08-21T01:32:13;18.10;99.90
54461;DHT22;40371;49.414;11.010;2022-08-21T01:34:42;18.10;99.90
54461;DHT22;40371;49.414;11.010;2022-08-21T01:37:08;18.10;99.90
54461;DHT22;40371;49.414;11.010;2022-08-21T01:39:35;18.10;99.90
54461;DHT22;40371;49.414;11.010;2022-08-21T01:42:02;18.10;99.90
54461;DHT22;40371;49.414;11.010;2022-08-21T01:44:28;18.20;99.90
54461;DHT22;40371;49.414;11.010;2022-08-21T01:46:55;18.10;99.90
54461;DHT22;40371;49.414;11.010;2022-08-21T01:49:21;18.10;99.90
54461;DHT22;40371;49.414;11.010;2022-08-21T01:51:47;18.20;99.90
54461;DHT22;40371;49.414;11.010;2022-08-21T01:54:12;18.20;99.90
54461;DHT22;40371;49.414;11.010;2022-08-21T01:56:41;18.10;99.90
54461;DHT22;40371;49.414;11.010;2022-08-21T01:59:08;18.10;99.90
54461;DHT22;40371;49.414;11.010;2022-08-21T02:01:34;18.10;99.90
54461;DHT22;40371;49.414;11.010;2022-08-21T02:03:59;18.10;99.90
54461;DHT22;40371;49.414;11.010;2022-08-21T02:06:26;18.00;99.90
54461;DHT22;40371;49.414;11.010;2022-08-21T02:08:52;17.90;99.90
54461;DHT22;40371;49.414;11.010;2022-08-21T02:11:18;17.90;99.90
54461;DHT22;40371;49.414;11.010;2022-08-21T02:13:44;17.90;99.90
54461;DHT22;40371;49.414;11.010;2022-08-21T02:16:10;17.90;99.90
54461;DHT22;40371;49.414;11.010;2022-08-21T02:18:36;18.00;99.90
54461;DHT22;40371;49.414;11.010;2022-08-21T02:21:03;18.00;99.90
54461;DHT22;40371;49.414;11.010;2022-08-21T02:23:29;18.00;99.90
54461;DHT22;40371;49.414;11.010;2022-08-21T02:26:00;18.00;99.90
54461;DHT22;40371;49.414;11.010;2022-08-21T02:28:27;18.00;99.90
54461;DHT22;40371;49.414;11.010;2022-08-21T02:30:54;18.00;99.90
54461;DHT22;40371;49.414;11.010;2022-08-21T02:33:19;18.00;99.90
54461;DHT22;40371;49.414;11.010;2022-08-21T02:35:46;17.90;99.90
54461;DHT22;40371;49.414;11.010;2022-08-21T02:38:18;17.90;99.90
54461;DHT22;40371;49.414;11.010;2022-08-21T02:40:47;17.80;99.90
54461;DHT22;40371;49.414;11.010;2022-08-21T02:43:13;17.90;99.90
54461;DHT22;40371;49.414;11.010;2022-08-21T02:45:41;17.90;99.90
54461;DHT22;40371;49.414;11.010;2022-08-21T02:48:10;17.80;99.90
54461;DHT22;40371;49.414;11.010;2022-08-21T02:50:43;17.80;99.90
54461;DHT22;40371;49.414;11.010;2022-08-21T02:53:10;17.80;99.90
54461;DHT22;40371;49.414;11.010;2022-08-21T02:55:37;17.80;99.90
54461;DHT22;40371;49.414;11.010;2022-08-21T02:58:04;17.70;99.90
54461;DHT22;40371;49.414;11.010;2022-08-21T03:00:31;17.80;99.90
54461;DHT22;40371;49.414;11.010;2022-08-21T03:02:58;17.80;99.90
54461;DHT22;40371;49.414;11.010;2022-08-21T03:05:27;17.80;99.90
54461;DHT22;40371;49.414;11.010;2022-08-21T03:07:53;17.80;99.90
54461;DHT22;40371;49.414;11.010;2022-08-21T03:10:21;17.80;99.90
54461;DHT22;40371;49.414;11.010;2022-08-21T03:12:48;17.80;99.90
54461;DHT22;40371;49.414;11.010;2022-08-21T03:15:17;17.90;99.90
54461;DHT22;40371;49.414;11.010;2022-08-21T03:17:43;17.90;99.90
54461;DHT22;40371;49.414;11.010;2022-08-21T03:20:10;17.90;99.90
54461;DHT22;40371;49.414;11.010;2022-08-21T03:22:35;17.90;99.90
54461;DHT22;40371;49.414;11.010;2022-08-21T03:25:01;17.90;99.90
54461;DHT22;40371;49.414;11.010;2022-08-21T03:27:28;18.00;99.90
54461;DHT22;40371;49.414;11.010;2022-08-21T03:29:54;18.00;99.90
54461;DHT22;40371;49.414;11.010;2022-08-21T03:32:21;18.00;99.90
54461;DHT22;40371;49.414;11.010;2022-08-21T03:34:47;18.00;99.90
54461;DHT22;40371;49.414;11.010;2022-08-21T03:37:13;17.90;99.90
54461;DHT22;40371;49.414;11.010;2022-08-21T03:39:40;17.90;99.90
54461;DHT22;40371;49.414;11.010;2022-08-21T03:42:07;18.00;99.90
54461;DHT22;40371;49.414;11.010;2022-08-21T03:44:33;17.90;99.90
54461;DHT22;40371;49.414;11.010;2022-08-21T03:47:00;18.00;99.90
54461;DHT22;40371;49.414;11.010;2022-08-21T03:49:26;18.00;99.90
54461;DHT22;40371;49.414;11.010;2022-08-21T03:51:51;18.00;99.90
54461;DHT22;40371;49.414;11.010;2022-08-21T03:54:17;17.90;99.90
54461;DHT22;40371;49.414;11.010;2022-08-21T03:56:43;17.90;99.90
54461;DHT22;40371;49.414;11.010;2022-08-21T03:59:09;18.00;99.90
54461;DHT22;40371;49.414;11.010;2022-08-21T04:01:35;18.00;99.90
54461;DHT22;40371;49.414;11.010;2022-08-21T04:04:02;18.00;99.90
54461;DHT22;40371;49.414;11.010;2022-08-21T04:06:28;18.00;99.90
54461;DHT22;40371;49.414;11.010;2022-08-21T04:08:53;18.00;99.90
54461;DHT22;40371;49.414;11.010;2022-08-21T04:11:19;18.10;99.90
54461;DHT22;40371;49.414;11.010;2022-08-21T04:13:46;18.10;99.90
54461;DHT22;40371;49.414;11.010;2022-08-21T04:16:13;18.00;99.90
54461;DHT22;40371;49.414;11.010;2022-08-21T04:18:39;17.90;99.90
54461;DHT22;40371;49.414;11.010;2022-08-21T04:21:05;17.90;99.90
54461;DHT22;40371;49.414;11.010;2022-08-21T04:23:32;18.00;99.90
54461;DHT22;40371;49.414;11.010;2022-08-21T04:25:58;18.00;99.90
54461;DHT22;40371;49.414;11.010;2022-08-21T04:28:25;18.10;99.90
54461;DHT22;40371;49.414;11.010;2022-08-21T04:30:51;17.90;99.90
54461;DHT22;40371;49.414;11.010;2022-08-21T04:33:17;17.90;99.90
54461;DHT22;40371;49.414;11.010;2022-08-21T04:35:43;17.90;99.90
54461;DHT22;40371;49.414;11.010;2022-08-21T04:38:09;17.90;99.90
54461;DHT22;40371;49.414;11.010;2022-08-21T04:40:34;17.90;99.90
54461;DHT22;40371;49.414;11.010;2022-08-21T04:43:03;17.90;99.90
54461;DHT22;40371;49.414;11.010;2022-08-21T04:45:33;17.80;99.90
54461;DHT22;40371;49.414;11.010;2022-08-21T04:48:01;17.80;99.90
54461;DHT22;40371;49.414;11.010;2022-08-21T04:53:19;17.80;99.90
54461;DHT22;40371;49.414;11.010;2022-08-21T04:55:47;17.80;99.90
54461;DHT22;40371;49.414;11.010;2022-08-21T04:58:16;17.70;99.90
54461;DHT22;40371;49.414;11.010;2022-08-21T05:00:43;17.70;99.90
54461;DHT22;40371;49.414;11.010;2022-08-21T05:03:10;17.70;99.90
54461;DHT22;40371;49.414;11.010;2022-08-21T05:05:36;17.70;99.90
54461;DHT22;40371;49.414;11.010;2022-08-21T05:08:03;17.70;99.90
54461;DHT22;40371;49.414;11.010;2022-08-21T05:10:28;17.80;99.90
54461;DHT22;40371;49.414;11.010;2022-08-21T05:12:55;17.70;99.90
54461;DHT22;40371;49.414;11.010;2022-08-21T05:15:21;17.70;99.90
54461;DHT22;40371;49.414;11.010;2022-08-21T05:17:47;17.70;99.90
54461;DHT22;40371;49.414;11.010;2022-08-21T05:20:13;17.70;99.90
54461;DHT22;40371;49.414;11.010;2022-08-21T05:22:39;17.70;99.90
54461;DHT22;40371;49.414;11.010;2022-08-21T05:25:06;17.90;99.90
54461;DHT22;40371;49.414;11.010;2022-08-21T05:27:32;18.00;99.90
54461;DHT22;40371;49.414;11.010;2022-08-21T05:29:58;17.90;99.90
54461;DHT22;40371;49.414;11.010;2022-08-21T05:32:24;17.90;99.90
54461;DHT22;40371;49.414;11.010;2022-08-21T05:34:50;17.90;99.90
54461;DHT22;40371;49.414;11.010;2022-08-21T05:37:16;17.90;99.90
54461;DHT22;40371;49.414;11.010;2022-08-21T05:39:41;17.90;99.90
54461;DHT22;40371;49.414;11.010;2022-08-21T05:42:07;18.10;99.90
54461;DHT22;40371;49.414;11.010;2022-08-21T05:44:33;18.10;99.90
54461;DHT22;40371;49.414;11.010;2022-08-21T05:47:04;18.20;99.90
54461;DHT22;40371;49.414;11.010;2022-08-21T05:49:29;18.30;99.90
54461;DHT22;40371;49.414;11.010;2022-08-21T05:51:55;18.20;99.90
54461;DHT22;40371;49.414;11.010;2022-08-21T05:54:21;18.10;99.90
54461;DHT22;40371;49.414;11.010;2022-08-21T05:56:46;18.20;99.90
54461;DHT22;40371;49.414;11.010;2022-08-21T05:59:12;18.10;99.90
54461;DHT22;40371;49.414;11.010;2022-08-21T06:01:38;18.10;99.90
54461;DHT22;40371;49.414;11.010;2022-08-21T06:04:04;18.10;99.90
54461;DHT22;40371;49.414;11.010;2022-08-21T06:06:30;18.10;99.90
54461;DHT22;40371;49.414;11.010;2022-08-21T06:08:56;18.00;99.90
54461;DHT22;40371;49.414;11.010;2022-08-21T06:11:21;17.90;99.90
54461;DHT22;40371;49.414;11.010;2022-08-21T06:13:47;17.90;99.90
54461;DHT22;40371;49.414;11.010;2022-08-21T06:16:15;17.90;99.90
54461;DHT22;40371;49.414;11.010;2022-08-21T06:18:41;18.00;99.90
54461;DHT22;40371;49.414;11.010;2022-08-21T06:21:07;18.00;99.90
54461;DHT22;40371;49.414;11.010;2022-08-21T06:23:34;18.10;99.90
54461;DHT22;40371;49.414;11.010;2022-08-21T06:26:01;18.20;99.90
54461;DHT22;40371;49.414;11.010;2022-08-21T06:28:27;18.20;99.90
54461;DHT22;40371;49.414;11.010;2022-08-21T06:30:52;18.30;99.90
54461;DHT22;40371;49.414;11.010;2022-08-21T06:33:18;18.30;99.90
54461;DHT22;40371;49.414;11.010;2022-08-21T06:35:43;18.40;99.90
54461;DHT22;40371;49.414;11.010;2022-08-21T06:38:09;18.50;99.90
54461;DHT22;40371;49.414;11.010;2022-08-21T06:40:35;18.50;99.90
54461;DHT22;40371;49.414;11.010;2022-08-21T06:43:27;18.60;99.90
54461;DHT22;40371;49.414;11.010;2022-08-21T06:45:53;18.60;99.90
54461;DHT22;40371;49.414;11.010;2022-08-21T06:48:19;18.60;99.90
54461;DHT22;40371;49.414;11.010;2022-08-21T06:50:44;18.60;99.90
54461;DHT22;40371;49.414;11.010;2022-08-21T06:53:12;18.70;99.90
54461;DHT22;40371;49.414;11.010;2022-08-21T06:55:39;18.70;99.90
54461;DHT22;40371;49.414;11.010;2022-08-21T06:58:05;18.80;99.90
54461;DHT22;40371;49.414;11.010;2022-08-21T07:00:31;18.70;99.90
54461;DHT22;40371;49.414;11.010;2022-08-21T07:02:58;18.70;99.90
54461;DHT22;40371;49.414;11.010;2022-08-21T07:05:28;18.50;99.90
54461;DHT22;40371;49.414;11.010;2022-08-21T07:07:54;18.50;99.90
54461;DHT22;40371;49.414;11.010;2022-08-21T07:10:20;18.50;99.90
54461;DHT22;40371;49.414;11.010;2022-08-21T07:12:45;18.60;99.90
54461;DHT22;40371;49.414;11.010;2022-08-21T07:15:11;18.80;99.90
54461;DHT22;40371;49.414;11.010;2022-08-21T07:17:37;18.90;99.90
54461;DHT22;40371;49.414;11.010;2022-08-21T07:20:04;18.90;99.90
54461;DHT22;40371;49.414;11.010;2022-08-21T07:22:30;18.90;99.90
54461;DHT22;40371;49.414;11.010;2022-08-21T07:24:56;18.90;99.90
54461;DHT22;40371;49.414;11.010;2022-08-21T07:27:22;19.00;99.90
54461;DHT22;40371;49.414;11.010;2022-08-21T07:29:47;19.10;99.90
54461;DHT22;40371;49.414;11.010;2022-08-21T07:32:14;19.10;99.90
54461;DHT22;40371;49.414;11.010;2022-08-21T07:34:41;19.10;99.90
54461;DHT22;40371;49.414;11.010;2022-08-21T07:37:06;18.90;99.90
54461;DHT22;40371;49.414;11.010;2022-08-21T07:39:32;19.00;99.90
54461;DHT22;40371;49.414;11.010;2022-08-21T07:41:57;19.10;99.90
54461;DHT22;40371;49.414;11.010;2022-08-21T07:44:23;19.10;99.90
54461;DHT22;40371;49.414;11.010;2022-08-21T07:46:49;19.20;99.90
54461;DHT22;40371;49.414;11.010;2022-08-21T07:49:14;19.10;99.90
54461;DHT22;40371;49.414;11.010;2022-08-21T07:51:40;19.00;99.90
54461;DHT22;40371;49.414;11.010;2022-08-21T07:54:05;19.00;99.90
54461;DHT22;40371;49.414;11.010;2022-08-21T07:56:31;19.20;99.90
54461;DHT22;40371;49.414;11.010;2022-08-21T07:58:57;19.00;99.90
54461;DHT22;40371;49.414;11.010;2022-08-21T08:01:24;19.30;99.90
54461;DHT22;40371;49.414;11.010;2022-08-21T08:03:50;19.20;99.90
54461;DHT22;40371;49.414;11.010;2022-08-21T08:06:15;19.40;99.90
54461;DHT22;40371;49.414;11.010;2022-08-21T08:08:44;19.50;99.90
54461;DHT22;40371;49.414;11.010;2022-08-21T08:11:11;19.50;99.90
54461;DHT22;40371;49.414;11.010;2022-08-21T08:13:41;19.60;99.90
54461;DHT22;40371;49.414;11.010;2022-08-21T08:16:07;19.60;99.90
54461;DHT22;40371;49.414;11.010;2022-08-21T08:18:33;19.70;99.90
54461;DHT22;40371;49.414;11.010;2022-08-21T08:20:59;19.70;99.90
54461;DHT22;40371;49.414;11.010;2022-08-21T08:23:24;19.80;99.90
54461;DHT22;40371;49.414;11.010;2022-08-21T08:25:50;19.70;99.90
54461;DHT22;40371;49.414;11.010;2022-08-21T08:28:16;19.70;99.90
54461;DHT22;40371;49.414;11.010;2022-08-21T08:30:42;19.80;99.90
54461;DHT22;40371;49.414;11.010;2022-08-21T08:33:08;19.90;99.90
54461;DHT22;40371;49.414;11.010;2022-08-21T08:35:33;20.00;99.90
54461;DHT22;40371;49.414;11.010;2022-08-21T08:37:59;20.10;99.90
54461;DHT22;40371;49.414;11.010;2022-08-21T08:40:39;20.10;99.90
54461;DHT22;40371;49.414;11.010;2022-08-21T08:43:07;20.00;99.90
54461;DHT22;40371;49.414;11.010;2022-08-21T08:45:36;19.80;99.90
54461;DHT22;40371;49.414;11.010;2022-08-21T08:48:06;20.10;99.90
54461;DHT22;40371;49.414;11.010;2022-08-21T08:50:49;20.20;99.90
54461;DHT22;40371;49.414;11.010;2022-08-21T08:53:33;20.10;99.90
54461;DHT22;40371;49.414;11.010;2022-08-21T08:56:03;20.00;99.90
54461;DHT22;40371;49.414;11.010;2022-08-21T08:58:32;20.00;99.90
54461;DHT22;40371;49.414;11.010;2022-08-21T09:00:58;20.10;99.90
54461;DHT22;40371;49.414;11.010;2022-08-21T09:03:26;20.00;99.90
54461;DHT22;40371;49.414;11.010;2022-08-21T09:06:01;20.20;99.90
54461;DHT22;40371;49.414;11.010;2022-08-21T09:08:54;20.20;99.90
54461;DHT22;40371;49.414;11.010;2022-08-21T09:14:16;20.60;99.90
54461;DHT22;40371;49.414;11.010;2022-08-21T09:22:54;21.40;99.90
54461;DHT22;40371;49.414;11.010;2022-08-21T09:25:27;21.40;99.90
54461;DHT22;40371;49.414;11.010;2022-08-21T09:27:54;21.70;99.90
54461;DHT22;40371;49.414;11.010;2022-08-21T09:30:25;21.80;99.90
54461;DHT22;40371;49.414;11.010;2022-08-21T09:32:51;22.00;99.90
54461;DHT22;40371;49.414;11.010;2022-08-21T09:35:19;22.20;99.90
54461;DHT22;40371;49.414;11.010;2022-08-21T09:37:51;22.20;99.90
54461;DHT22;40371;49.414;11.010;2022-08-21T09:45:34;22.50;99.90
54461;DHT22;40371;49.414;11.010;2022-08-21T09:48:11;26.60;99.90
54461;DHT22;40371;49.414;11.010;2022-08-21T09:50:38;30.80;99.90
54461;DHT22;40371;49.414;11.010;2022-08-21T09:53:04;31.80;99.90
54461;DHT22;40371;49.414;11.010;2022-08-21T09:55:49;30.10;99.90
54461;DHT22;40371;49.414;11.010;2022-08-21T09:58:36;30.20;99.90
54461;DHT22;40371;49.414;11.010;2022-08-21T10:01:05;31.20;99.90
54461;DHT22;40371;49.414;11.010;2022-08-21T10:03:31;33.10;99.90
54461;DHT22;40371;49.414;11.010;2022-08-21T10:06:01;32.20;99.90
54461;DHT22;40371;49.414;11.010;2022-08-21T10:08:33;31.30;99.90
54461;DHT22;40371;49.414;11.010;2022-08-21T10:11:08;31.40;99.90
54461;DHT22;40371;49.414;11.010;2022-08-21T10:14:12;30.80;99.60
54461;DHT22;40371;49.414;11.010;2022-08-21T10:19:38;28.60;99.90
54461;DHT22;40371;49.414;11.010;2022-08-21T10:25:21;31.80;99.40
54461;DHT22;40371;49.414;11.010;2022-08-21T10:28:02;31.80;98.40
54461;DHT22;40371;49.414;11.010;2022-08-21T10:33:13;31.50;98.60
54461;DHT22;40371;49.414;11.010;2022-08-21T10:44:20;30.20;99.20
54461;DHT22;40371;49.414;11.010;2022-08-21T10:47:12;31.30;96.50
54461;DHT22;40371;49.414;11.010;2022-08-21T10:50:00;31.60;95.50
54461;DHT22;40371;49.414;11.010;2022-08-21T10:55:22;33.80;92.40
54461;DHT22;40371;49.414;11.010;2022-08-21T10:57:54;35.40;90.90
54461;DHT22;40371;49.414;11.010;2022-08-21T11:00:26;36.70;86.40
54461;DHT22;40371;49.414;11.010;2022-08-21T11:03:04;35.90;90.00
54461;DHT22;40371;49.414;11.010;2022-08-21T11:05:46;36.80;83.10
54461;DHT22;40371;49.414;11.010;2022-08-21T11:08:28;34.70;86.60
54461;DHT22;40371;49.414;11.010;2022-08-21T11:11:01;36.80;82.60
54461;DHT22;40371;49.414;11.010;2022-08-21T11:13:47;37.40;81.10
54461;DHT22;40371;49.414;11.010;2022-08-21T11:19:08;39.70;74.20
54461;DHT22;40371;49.414;11.010;2022-08-21T11:21:44;39.40;68.30
54461;DHT22;40371;49.414;11.010;2022-08-21T11:24:29;37.40;71.00
54461;DHT22;40371;49.414;11.010;2022-08-21T11:27:09;38.80;71.00
54461;DHT22;40371;49.414;11.010;2022-08-21T11:29:41;38.60;70.40
54461;DHT22;40371;49.414;11.010;2022-08-21T11:32:39;36.60;70.20
54461;DHT22;40371;49.414;11.010;2022-08-21T11:35:17;34.90;74.20
54461;DHT22;40371;49.414;11.010;2022-08-21T11:40:42;33.70;75.10
54461;DHT22;40371;49.414;11.010;2022-08-21T11:43:22;32.40;75.30
54461;DHT22;40371;49.414;11.010;2022-08-21T11:45:53;32.40;79.70
54461;DHT22;40371;49.414;11.010;2022-08-21T11:50:46;34.60;74.60
54461;DHT22;40371;49.414;11.010;2022-08-21T11:53:22;34.70;74.30
54461;DHT22;40371;49.414;11.010;2022-08-21T11:56:03;34.00;76.20
54461;DHT22;40371;49.414;11.010;2022-08-21T11:58:44;33.30;77.00
54461;DHT22;40371;49.414;11.010;2022-08-21T12:01:15;33.00;77.20
54461;DHT22;40371;49.414;11.010;2022-08-21T12:03:55;33.00;74.70
54461;DHT22;40371;49.414;11.010;2022-08-21T12:06:41;33.50;75.20
54461;DHT22;40371;49.414;11.010;2022-08-21T12:09:10;33.00;75.50
54461;DHT22;40371;49.414;11.010;2022-08-21T12:11:50;33.30;74.10
54461;DHT22;40371;49.414;11.010;2022-08-21T12:14:18;34.20;74.70
54461;DHT22;40371;49.414;11.010;2022-08-21T12:16:48;36.50;69.30
54461;DHT22;40371;49.414;11.010;2022-08-21T12:19:30;37.60;68.10
54461;DHT22;40371;49.414;11.010;2022-08-21T12:22:09;36.20;62.40
54461;DHT22;40371;49.414;11.010;2022-08-21T12:24:49;34.50;66.50
54461;DHT22;40371;49.414;11.010;2022-08-21T12:27:27;32.30;66.90
54461;DHT22;40371;49.414;11.010;2022-08-21T12:30:00;33.10;66.80
54461;DHT22;40371;49.414;11.010;2022-08-21T12:35:21;31.30;73.00
54461;DHT22;40371;49.414;11.010;2022-08-21T12:37:56;30.60;76.70
54461;DHT22;40371;49.414;11.010;2022-08-21T12:41:15;30.80;76.20
54461;DHT22;40371;49.414;11.010;2022-08-21T12:43:19;30.70;77.40
54461;DHT22;40371;49.414;11.010;2022-08-21T12:45:47;30.50;76.70
54461;DHT22;40371;49.414;11.010;2022-08-21T12:53:52;30.00;79.00
54461;DHT22;40371;49.414;11.010;2022-08-21T12:56:22;29.80;80.50
54461;DHT22;40371;49.414;11.010;2022-08-21T12:58:57;29.90;81.20
54461;DHT22;40371;49.414;11.010;2022-08-21T13:01:46;30.00;80.10
54461;DHT22;40371;49.414;11.010;2022-08-21T13:04:16;28.10;78.80
54461;DHT22;40371;49.414;11.010;2022-08-21T13:06:46;27.80;83.00
54461;DHT22;40371;49.414;11.010;2022-08-21T13:09:15;28.20;80.90
54461;DHT22;40371;49.414;11.010;2022-08-21T13:11:43;28.30;81.30
54461;DHT22;40371;49.414;11.010;2022-08-21T13:14:21;28.70;82.20
54461;DHT22;40371;49.414;11.010;2022-08-21T13:16:56;28.90;82.90
54461;DHT22;40371;49.414;11.010;2022-08-21T13:19:22;28.80;82.50
54461;DHT22;40371;49.414;11.010;2022-08-21T13:21:49;28.60;83.00
54461;DHT22;40371;49.414;11.010;2022-08-21T13:24:17;28.30;83.80
54461;DHT22;40371;49.414;11.010;2022-08-21T13:26:43;28.40;84.00
54461;DHT22;40371;49.414;11.010;2022-08-21T13:29:11;28.60;84.70
54461;DHT22;40371;49.414;11.010;2022-08-21T13:31:39;28.80;83.40
54461;DHT22;40371;49.414;11.010;2022-08-21T13:34:09;28.80;82.60
54461;DHT22;40371;49.414;11.010;2022-08-21T13:36:39;28.70;83.00
54461;DHT22;40371;49.414;11.010;2022-08-21T13:39:08;28.70;84.50
54461;DHT22;40371;49.414;11.010;2022-08-21T13:41:36;28.50;84.70
54461;DHT22;40371;49.414;11.010;2022-08-21T13:44:17;28.30;85.40
54461;DHT22;40371;49.414;11.010;2022-08-21T13:46:43;28.00;85.60
54461;DHT22;40371;49.414;11.010;2022-08-21T13:49:10;27.80;86.90
54461;DHT22;40371;49.414;11.010;2022-08-21T13:51:39;27.80;86.70
54461;DHT22;40371;49.414;11.010;2022-08-21T13:56:44;27.30;86.50
54461;DHT22;40371;49.414;11.010;2022-08-21T13:59:10;26.40;89.60
54461;DHT22;40371;49.414;11.010;2022-08-21T14:01:49;26.70;90.40
54461;DHT22;40371;49.414;11.010;2022-08-21T14:04:24;27.10;89.50
54461;DHT22;40371;49.414;11.010;2022-08-21T14:06:50;27.10;90.00
54461;DHT22;40371;49.414;11.010;2022-08-21T14:09:30;27.10;89.70
54461;DHT22;40371;49.414;11.010;2022-08-21T14:11:57;27.20;89.10
54461;DHT22;40371;49.414;11.010;2022-08-21T14:14:28;27.10;89.10
54461;DHT22;40371;49.414;11.010;2022-08-21T14:16:55;27.10;88.80
54461;DHT22;40371;49.414;11.010;2022-08-21T14:19:25;26.50;90.20
54461;DHT22;40371;49.414;11.010;2022-08-21T14:21:51;26.60;90.30
54461;DHT22;40371;49.414;11.010;2022-08-21T14:26:50;26.80;90.30
54461;DHT22;40371;49.414;11.010;2022-08-21T14:29:19;26.90;90.00
54461;DHT22;40371;49.414;11.010;2022-08-21T14:31:54;26.60;88.60
54461;DHT22;40371;49.414;11.010;2022-08-21T14:34:25;26.70;89.90
54461;DHT22;40371;49.414;11.010;2022-08-21T14:36:51;26.80;89.30
54461;DHT22;40371;49.414;11.010;2022-08-21T14:39:17;26.60;90.50
54461;DHT22;40371;49.414;11.010;2022-08-21T14:41:44;26.70;89.50
54461;DHT22;40371;49.414;11.010;2022-08-21T14:44:14;26.80;89.50
54461;DHT22;40371;49.414;11.010;2022-08-21T14:46:41;26.80;87.60
54461;DHT22;40371;49.414;11.010;2022-08-21T14:49:06;26.80;88.00
54461;DHT22;40371;49.414;11.010;2022-08-21T14:51:33;26.90;87.80
54461;DHT22;40371;49.414;11.010;2022-08-21T14:53:58;26.90;88.10
54461;DHT22;40371;49.414;11.010;2022-08-21T14:56:24;26.90;87.30
54461;DHT22;40371;49.414;11.010;2022-08-21T14:58:51;26.80;86.80
54461;DHT22;40371;49.414;11.010;2022-08-21T15:01:20;26.80;86.90
54461;DHT22;40371;49.414;11.010;2022-08-21T15:03:46;26.80;87.70
54461;DHT22;40371;49.414;11.010;2022-08-21T15:06:15;26.90;87.80
54461;DHT22;40371;49.414;11.010;2022-08-21T15:08:41;26.90;87.70
54461;DHT22;40371;49.414;11.010;2022-08-21T15:11:08;26.90;85.90
54461;DHT22;40371;49.414;11.010;2022-08-21T15:13:36;26.90;85.50
54461;DHT22;40371;49.414;11.010;2022-08-21T15:16:02;26.90;84.30
54461;DHT22;40371;49.414;11.010;2022-08-21T15:18:29;26.90;84.70
54461;DHT22;40371;49.414;11.010;2022-08-21T15:20:55;26.90;85.30
54461;DHT22;40371;49.414;11.010;2022-08-21T15:23:21;26.90;84.40
54461;DHT22;40371;49.414;11.010;2022-08-21T15:25:47;26.90;83.10
54461;DHT22;40371;49.414;11.010;2022-08-21T15:28:14;26.90;83.00
54461;DHT22;40371;49.414;11.010;2022-08-21T15:30:42;26.90;83.40
54461;DHT22;40371;49.414;11.010;2022-08-21T15:33:08;26.90;83.40
54461;DHT22;40371;49.414;11.010;2022-08-21T15:35:35;26.90;83.00
54461;DHT22;40371;49.414;11.010;2022-08-21T15:38:01;26.90;82.40
54461;DHT22;40371;49.414;11.010;2022-08-21T15:40:27;26.80;82.20
54461;DHT22;40371;49.414;11.010;2022-08-21T15:42:57;26.80;82.50
54461;DHT22;40371;49.414;11.010;2022-08-21T15:45:24;26.80;82.10
54461;DHT22;40371;49.414;11.010;2022-08-21T15:47:50;26.70;83.20
54461;DHT22;40371;49.414;11.010;2022-08-21T15:50:16;26.70;82.60
54461;DHT22;40371;49.414;11.010;2022-08-21T15:52:42;26.60;83.20
54461;DHT22;40371;49.414;11.010;2022-08-21T15:55:09;26.50;82.60
54461;DHT22;40371;49.414;11.010;2022-08-21T15:57:36;26.50;84.10
54461;DHT22;40371;49.414;11.010;2022-08-21T16:00:16;26.60;83.20
54461;DHT22;40371;49.414;11.010;2022-08-21T16:02:44;26.60;82.40
54461;DHT22;40371;49.414;11.010;2022-08-21T16:05:11;26.60;82.30
54461;DHT22;40371;49.414;11.010;2022-08-21T16:07:38;26.70;81.70
54461;DHT22;40371;49.414;11.010;2022-08-21T16:10:05;26.70;81.20
54461;DHT22;40371;49.414;11.010;2022-08-21T16:12:34;26.60;82.00
54461;DHT22;40371;49.414;11.010;2022-08-21T16:15:04;26.50;81.90
54461;DHT22;40371;49.414;11.010;2022-08-21T16:17:33;26.40;82.30
54461;DHT22;40371;49.414;11.010;2022-08-21T16:20:01;26.40;82.00
54461;DHT22;40371;49.414;11.010;2022-08-21T16:22:26;26.50;82.40
54461;DHT22;40371;49.414;11.010;2022-08-21T16:24:52;26.50;81.80